sensor_id;sensor_type;location;lat;lon;timestamp;pressure;altitude;pressure_sealevel;temperature;humidity
54042;BME280;41156;51.508;5.406;2023-03-21T00:01:34;101569.19;;;9.14;100.00
54042;BME280;41156;51.508;5.406;2023-03-21T00:04:35;101565.59;;;9.06;100.00
54042;BME280;41156;51.508;5.406;2023-03-21T00:07:35;101568.66;;;9.03;100.00
54042;BME280;41156;51.508;5.406;2023-03-21T00:10:36;101559.06;;;9.01;100.00
54042;BME280;41156;51.508;5.406;2023-03-21T00:13:36;101552.00;;;9.00;100.00
54042;BME280;41156;51.508;5.406;2023-03-21T00:16:42;101554.72;;;9.00;100.00
54042;BME280;41156;51.508;5.406;2023-03-21T00:19:44;101553.19;;;9.27;100.00
54042;BME280;41156;51.508;5.406;2023-03-21T00:22:45;101544.59;;;9.38;100.00
54042;BME280;41156;51.508;5.406;2023-03-21T00:25:45;101536.97;;;9.42;100.00
54042;BME280;41156;51.508;5.406;2023-03-21T00:28:45;101533.88;;;9.45;100.00
54042;BME280;41156;51.508;5.406;2023-03-21T00:31:46;101534.72;;;9.45;100.00
54042;BME280;41156;51.508;5.406;2023-03-21T00:34:47;101533.06;;;9.44;100.00
54042;BME280;41156;51.508;5.406;2023-03-21T00:37:47;101537.22;;;9.47;100.00
54042;BME280;41156;51.508;5.406;2023-03-21T00:40:47;101523.69;;;9.25;100.00
54042;BME280;41156;51.508;5.406;2023-03-21T00:43:48;101524.78;;;9.10;100.00
54042;BME280;41156;51.508;5.406;2023-03-21T00:46:48;101522.63;;;9.05;100.00
54042;BME280;41156;51.508;5.406;2023-03-21T00:49:49;101515.75;;;9.02;100.00
54042;BME280;41156;51.508;5.406;2023-03-21T00:52:49;101510.53;;;9.01;100.00
54042;BME280;41156;51.508;5.406;2023-03-21T00:55:50;101510.53;;;9.01;100.00
54042;BME280;41156;51.508;5.406;2023-03-21T00:58:50;101507.84;;;9.01;100.00
54042;BME280;41156;51.508;5.406;2023-03-21T01:01:51;101495.22;;;9.01;100.00
54042;BME280;41156;51.508;5.406;2023-03-21T01:04:53;101500.59;;;9.01;100.00
54042;BME280;41156;51.508;5.406;2023-03-21T01:07:53;101492.53;;;9.01;100.00
54042;BME280;41156;51.508;5.406;2023-03-21T01:10:54;101483.59;;;9.01;100.00
54042;BME280;41156;51.508;5.406;2023-03-21T01:13:55;101482.75;;;9.00;100.00
54042;BME280;41156;51.508;5.406;2023-03-21T01:16:56;101470.31;;;8.99;100.00
54042;BME280;41156;51.508;5.406;2023-03-21T01:19:56;101469.47;;;8.99;100.00
54042;BME280;41156;51.508;5.406;2023-03-21T01:22:56;101469.47;;;8.99;100.00
54042;BME280;41156;51.508;5.406;2023-03-21T01:25:56;101469.47;;;8.99;100.00
54042;BME280;41156;51.508;5.406;2023-03-21T01:28:57;101464.06;;;8.99;100.00
54042;BME280;41156;51.508;5.406;2023-03-21T01:31:57;101463.25;;;8.98;100.00
54042;BME280;41156;51.508;5.406;2023-03-21T01:34:57;101466.13;;;9.33;100.00
54042;BME280;41156;51.508;5.406;2023-03-21T01:37:58;101466.63;;;9.43;100.00
54042;BME280;41156;51.508;5.406;2023-03-21T01:41:00;101460.03;;;9.46;100.00
54042;BME280;41156;51.508;5.406;2023-03-21T01:44:04;101454.75;;;9.16;100.00
54042;BME280;41156;51.508;5.406;2023-03-21T01:47:05;101454.88;;;9.08;100.00
54042;BME280;41156;51.508;5.406;2023-03-21T01:50:05;101454.44;;;9.26;100.00
54042;BME280;41156;51.508;5.406;2023-03-21T01:53:06;101456.59;;;9.37;100.00
54042;BME280;41156;51.508;5.406;2023-03-21T01:56:28;101456.88;;;9.42;100.00
54042;BME280;41156;51.508;5.406;2023-03-21T01:59:36;101448.59;;;9.44;100.00
54042;BME280;41156;51.508;5.406;2023-03-21T02:02:42;101447.56;;;9.45;100.00
54042;BME280;41156;51.508;5.406;2023-03-21T02:05:58;101444.88;;;9.45;100.00
54042;BME280;41156;51.508;5.406;2023-03-21T02:09:04;101438.91;;;9.28;100.00
54042;BME280;41156;51.508;5.406;2023-03-21T02:12:07;101432.00;;;9.25;100.00
54042;BME280;41156;51.508;5.406;2023-03-21T02:15:09;101427.47;;;9.26;100.00
54042;BME280;41156;51.508;5.406;2023-03-21T02:21:29;101421.88;;;9.28;100.00
54042;BME280;41156;51.508;5.406;2023-03-21T02:27:55;101413.13;;;9.25;100.00
54042;BME280;41156;51.508;5.406;2023-03-21T02:31:13;101412.31;;;9.25;100.00
54042;BME280;41156;51.508;5.406;2023-03-21T02:37:47;101409.63;;;9.25;100.00
54042;BME280;41156;51.508;5.406;2023-03-21T02:40:56;101404.03;;;9.26;100.00
54042;BME280;41156;51.508;5.406;2023-03-21T02:44:09;101391.38;;;9.27;100.00
54042;BME280;41156;51.508;5.406;2023-03-21T02:47:16;101401.97;;;9.29;100.00
54042;BME280;41156;51.508;5.406;2023-03-21T02:50:23;101393.69;;;9.08;100.00
54042;BME280;41156;51.508;5.406;2023-03-21T02:53:30;101388.22;;;9.02;100.00
54042;BME280;41156;51.508;5.406;2023-03-21T02:56:33;101391.69;;;9.17;100.00
54042;BME280;41156;51.508;5.406;2023-03-21T02:59:34;101392.97;;;9.21;100.00
54042;BME280;41156;51.508;5.406;2023-03-21T03:02:37;101386.78;;;9.21;100.00
54042;BME280;41156;51.508;5.406;2023-03-21T03:05:47;101385.53;;;9.23;100.00
54042;BME280;41156;51.508;5.406;2023-03-21T03:08:54;101375.75;;;9.22;100.00
54042;BME280;41156;51.508;5.406;2023-03-21T03:12:49;101379.50;;;9.21;100.00
54042;BME280;41156;51.508;5.406;2023-03-21T03:16:04;101368.09;;;9.19;100.00
54042;BME280;41156;51.508;5.406;2023-03-21T03:19:10;101375.50;;;9.17;100.00
54042;BME280;41156;51.508;5.406;2023-03-21T03:22:23;101368.66;;;9.15;100.00
54042;BME280;41156;51.508;5.406;2023-03-21T03:25:30;101366.97;;;9.14;100.00
54042;BME280;41156;51.508;5.406;2023-03-21T03:28:36;101368.84;;;9.13;100.00
54042;BME280;41156;51.508;5.406;2023-03-21T03:31:43;101365.50;;;9.11;100.00
54042;BME280;41156;51.508;5.406;2023-03-21T03:34:49;101370.91;;;9.11;100.00
54042;BME280;41156;51.508;5.406;2023-03-21T03:37:55;101361.13;;;9.10;100.00
54042;BME280;41156;51.508;5.406;2023-03-21T03:41:01;101361.13;;;9.10;100.00
54042;BME280;41156;51.508;5.406;2023-03-21T03:44:05;101360.13;;;9.11;100.00
54042;BME280;41156;51.508;5.406;2023-03-21T03:47:11;101355.94;;;9.08;100.00
54042;BME280;41156;51.508;5.406;2023-03-21T03:50:38;101351.38;;;9.09;100.00
54042;BME280;41156;51.508;5.406;2023-03-21T03:53:45;101350.53;;;9.08;100.00
54042;BME280;41156;51.508;5.406;2023-03-21T03:56:48;101349.72;;;9.08;100.00
54042;BME280;41156;51.508;5.406;2023-03-21T03:59:49;101352.59;;;9.06;100.00
54042;BME280;41156;51.508;5.406;2023-03-21T04:02:50;101352.78;;;9.05;100.00
54042;BME280;41156;51.508;5.406;2023-03-21T04:05:50;101342.00;;;9.05;100.00
54042;BME280;41156;51.508;5.406;2023-03-21T04:08:50;101345.53;;;9.05;100.00
54042;BME280;41156;51.508;5.406;2023-03-21T04:11:51;101342.00;;;9.05;100.00
54042;BME280;41156;51.508;5.406;2023-03-21T04:14:51;101343.69;;;9.06;100.00
54042;BME280;41156;51.508;5.406;2023-03-21T04:17:52;101339.94;;;9.07;100.00
54042;BME280;41156;51.508;5.406;2023-03-21T04:20:52;101332.69;;;9.07;100.00
54042;BME280;41156;51.508;5.406;2023-03-21T04:23:52;101340.78;;;9.07;100.00
54042;BME280;41156;51.508;5.406;2023-03-21T04:26:53;101335.19;;;9.09;100.00
54042;BME280;41156;51.508;5.406;2023-03-21T04:29:54;101328.78;;;9.10;100.00
54042;BME280;41156;51.508;5.406;2023-03-21T04:32:55;101328.16;;;9.08;100.00
54042;BME280;41156;51.508;5.406;2023-03-21T04:36:00;101325.25;;;9.10;100.00
54042;BME280;41156;51.508;5.406;2023-03-21T04:39:00;101319.88;;;9.10;100.00
54042;BME280;41156;51.508;5.406;2023-03-21T04:42:00;101320.50;;;9.12;100.00
54042;BME280;41156;51.508;5.406;2023-03-21T04:45:01;101322.19;;;9.13;100.00
54042;BME280;41156;51.508;5.406;2023-03-21T04:48:01;101316.56;;;9.14;100.00
54042;BME280;41156;51.508;5.406;2023-03-21T04:51:03;101307.47;;;9.15;100.00
54042;BME280;41156;51.508;5.406;2023-03-21T04:54:03;101300.63;;;9.13;100.00
54042;BME280;41156;51.508;5.406;2023-03-21T04:57:04;101296.00;;;9.06;100.00
54042;BME280;41156;51.508;5.406;2023-03-21T05:00:09;101301.69;;;9.18;100.00
54042;BME280;41156;51.508;5.406;2023-03-21T05:03:10;101294.22;;;9.20;100.00
54042;BME280;41156;51.508;5.406;2023-03-21T05:06:18;101302.13;;;9.22;100.00
54042;BME280;41156;51.508;5.406;2023-03-21T05:09:19;101297.56;;;9.22;100.00
54042;BME280;41156;51.508;5.406;2023-03-21T05:12:21;101292.16;;;9.22;100.00
54042;BME280;41156;51.508;5.406;2023-03-21T05:15:21;101299.25;;;9.23;100.00
54042;BME280;41156;51.508;5.406;2023-03-21T05:18:21;101293.03;;;9.23;100.00
54042;BME280;41156;51.508;5.406;2023-03-21T05:21:25;101283.06;;;9.23;100.00
54042;BME280;41156;51.508;5.406;2023-03-21T05:24:28;101301.94;;;9.23;100.00
54042;BME280;41156;51.508;5.406;2023-03-21T05:27:29;101299.03;;;9.25;100.00
54042;BME280;41156;51.508;5.406;2023-03-21T05:30:35;101292.84;;;9.24;100.00
54042;BME280;41156;51.508;5.406;2023-03-21T05:33:35;101291.78;;;9.25;100.00
54042;BME280;41156;51.508;5.406;2023-03-21T05:36:36;101294.47;;;9.25;100.00
54042;BME280;41156;51.508;5.406;2023-03-21T05:39:36;101298.03;;;9.26;100.00
54042;BME280;41156;51.508;5.406;2023-03-21T05:42:36;101290.13;;;9.24;100.00
54042;BME280;41156;51.508;5.406;2023-03-21T05:45:37;101289.09;;;9.25;100.00
54042;BME280;41156;51.508;5.406;2023-03-21T05:48:37;101296.16;;;9.26;100.00
54042;BME280;41156;51.508;5.406;2023-03-21T05:51:37;101293.47;;;9.26;100.00
54042;BME280;41156;51.508;5.406;2023-03-21T05:54:38;101286.00;;;9.29;100.00
54042;BME280;41156;51.508;5.406;2023-03-21T05:57:38;101284.97;;;9.30;100.00
54042;BME280;41156;51.508;5.406;2023-03-21T06:00:39;101281.44;;;9.29;100.00
54042;BME280;41156;51.508;5.406;2023-03-21T06:03:40;101285.63;;;9.32;100.00
54042;BME280;41156;51.508;5.406;2023-03-21T06:06:41;101281.91;;;9.33;100.00
54042;BME280;41156;51.508;5.406;2023-03-21T06:09:41;101283.56;;;9.34;100.00
54042;BME280;41156;51.508;5.406;2023-03-21T06:12:41;101288.75;;;9.35;100.00
54042;BME280;41156;51.508;5.406;2023-03-21T06:15:42;101283.97;;;9.37;100.00
54042;BME280;41156;51.508;5.406;2023-03-21T06:18:42;101287.97;;;9.41;100.00
54042;BME280;41156;51.508;5.406;2023-03-21T06:21:43;101290.28;;;9.44;100.00
54042;BME280;41156;51.508;5.406;2023-03-21T06:24:43;101294.25;;;9.49;100.00
54042;BME280;41156;51.508;5.406;2023-03-21T06:27:43;101304.44;;;9.53;100.00
54042;BME280;41156;51.508;5.406;2023-03-21T06:30:43;101301.38;;;9.56;100.00
54042;BME280;41156;51.508;5.406;2023-03-21T06:33:44;101302.00;;;9.58;100.00
54042;BME280;41156;51.508;5.406;2023-03-21T06:36:44;101299.94;;;9.60;100.00
54042;BME280;41156;51.508;5.406;2023-03-21T06:39:46;101300.78;;;9.61;100.00
54042;BME280;41156;51.508;5.406;2023-03-21T06:42:46;101301.41;;;9.63;100.00
54042;BME280;41156;51.508;5.406;2023-03-21T06:45:46;101304.94;;;9.63;100.00
54042;BME280;41156;51.508;5.406;2023-03-21T06:48:47;101300.78;;;9.61;100.00
54042;BME280;41156;51.508;5.406;2023-03-21T06:51:47;101299.09;;;9.60;100.00
54042;BME280;41156;51.508;5.406;2023-03-21T06:54:47;101300.97;;;9.59;100.00
54042;BME280;41156;51.508;5.406;2023-03-21T06:57:48;101300.97;;;9.59;100.00
54042;BME280;41156;51.508;5.406;2023-03-21T07:00:48;101307.38;;;9.58;100.00
54042;BME280;41156;51.508;5.406;2023-03-21T07:03:49;101304.69;;;9.58;100.00
54042;BME280;41156;51.508;5.406;2023-03-21T07:06:49;101308.22;;;9.59;100.00
54042;BME280;41156;51.508;5.406;2023-03-21T07:09:50;101315.28;;;9.60;100.00
54042;BME280;41156;51.508;5.406;2023-03-21T07:12:50;101317.78;;;9.61;100.00
54042;BME280;41156;51.508;5.406;2023-03-21T07:15:51;101316.97;;;9.61;100.00
54042;BME280;41156;51.508;5.406;2023-03-21T07:18:53;101317.78;;;9.61;100.00
54042;BME280;41156;51.508;5.406;2023-03-21T07:21:53;101311.56;;;9.61;100.00
54042;BME280;41156;51.508;5.406;2023-03-21T07:24:54;101318.03;;;9.67;100.00
54042;BME280;41156;51.508;5.406;2023-03-21T07:27:54;101328.63;;;9.68;100.00
54042;BME280;41156;51.508;5.406;2023-03-21T07:31:01;101329.25;;;9.70;100.00
54042;BME280;41156;51.508;5.406;2023-03-21T07:34:01;101327.38;;;9.71;100.00
54042;BME280;41156;51.508;5.406;2023-03-21T07:37:02;101322.00;;;9.71;100.00
54042;BME280;41156;51.508;5.406;2023-03-21T07:40:03;101320.53;;;9.68;100.00
54042;BME280;41156;51.508;5.406;2023-03-21T07:43:10;101321.56;;;9.67;100.00
54042;BME280;41156;51.508;5.406;2023-03-21T07:46:10;101320.09;;;9.65;100.00
54042;BME280;41156;51.508;5.406;2023-03-21T07:49:10;101307.00;;;9.61;100.00
54042;BME280;41156;51.508;5.406;2023-03-21T07:52:11;101312.19;;;9.63;100.00
54042;BME280;41156;51.508;5.406;2023-03-21T07:55:12;101309.50;;;9.63;100.00
54042;BME280;41156;51.508;5.406;2023-03-21T07:58:12;101307.63;;;9.63;100.00
54042;BME280;41156;51.508;5.406;2023-03-21T08:01:13;101298.72;;;9.63;100.00
54042;BME280;41156;51.508;5.406;2023-03-21T08:04:13;101295.44;;;9.68;100.00
54042;BME280;41156;51.508;5.406;2023-03-21T08:07:14;101287.56;;;9.73;100.00
54042;BME280;41156;51.508;5.406;2023-03-21T08:10:14;101275.31;;;9.77;100.00
54042;BME280;41156;51.508;5.406;2023-03-21T08:13:16;101281.81;;;9.82;100.00
54042;BME280;41156;51.508;5.406;2023-03-21T08:16:16;101277.47;;;9.88;100.00
54042;BME280;41156;51.508;5.406;2023-03-21T08:19:17;101268.97;;;9.91;100.00
54042;BME280;41156;51.508;5.406;2023-03-21T08:22:19;101262.53;;;9.92;100.00
54042;BME280;41156;51.508;5.406;2023-03-21T08:25:21;101260.69;;;9.93;100.00
54042;BME280;41156;51.508;5.406;2023-03-21T08:28:22;101259.81;;;9.92;100.00
54042;BME280;41156;51.508;5.406;2023-03-21T08:31:22;101257.75;;;9.88;100.00
54042;BME280;41156;51.508;5.406;2023-03-21T08:34:22;101251.91;;;9.84;100.00
54042;BME280;41156;51.508;5.406;2023-03-21T08:37:23;101253.97;;;9.82;100.00
54042;BME280;41156;51.508;5.406;2023-03-21T08:40:24;101254.59;;;9.84;100.00
54042;BME280;41156;51.508;5.406;2023-03-21T08:43:25;101250.69;;;9.87;100.00
54042;BME280;41156;51.508;5.406;2023-03-21T08:46:25;101251.72;;;9.92;100.00
54042;BME280;41156;51.508;5.406;2023-03-21T08:49:26;101254.03;;;9.95;100.00
54042;BME280;41156;51.508;5.406;2023-03-21T08:52:27;101253.00;;;9.96;100.00
54042;BME280;41156;51.508;5.406;2023-03-21T08:55:27;101242.84;;;9.98;100.00
54042;BME280;41156;51.508;5.406;2023-03-21T08:58:27;101238.91;;;10.01;100.00
54042;BME280;41156;51.508;5.406;2023-03-21T09:01:27;101236.25;;;10.08;100.00
54042;BME280;41156;51.508;5.406;2023-03-21T09:04:28;101228.56;;;10.11;100.00
54042;BME280;41156;51.508;5.406;2023-03-21T09:07:30;101234.19;;;10.16;100.00
54042;BME280;41156;51.508;5.406;2023-03-21T09:10:33;101230.50;;;10.24;100.00
54042;BME280;41156;51.508;5.406;2023-03-21T09:13:34;101241.31;;;10.31;100.00
54042;BME280;41156;51.508;5.406;2023-03-21T09:16:34;101236.34;;;10.34;100.00
54042;BME280;41156;51.508;5.406;2023-03-21T09:19:34;101235.09;;;10.37;100.00
54042;BME280;41156;51.508;5.406;2023-03-21T09:22:35;101236.56;;;10.40;100.00
54042;BME280;41156;51.508;5.406;2023-03-21T09:25:36;101233.03;;;10.39;100.00
54042;BME280;41156;51.508;5.406;2023-03-21T09:28:37;101227.41;;;10.41;100.00
54042;BME280;41156;51.508;5.406;2023-03-21T09:31:38;101225.59;;;10.48;100.00
54042;BME280;41156;51.508;5.406;2023-03-21T09:34:39;101216.00;;;10.52;100.00
54042;BME280;41156;51.508;5.406;2023-03-21T09:37:40;101216.44;;;10.55;100.00
54042;BME280;41156;51.508;5.406;2023-03-21T09:40:47;101220.19;;;10.54;100.00
54042;BME280;41156;51.508;5.406;2023-03-21T09:47:26;101219.13;;;10.49;100.00
54042;BME280;41156;51.508;5.406;2023-03-21T09:50:36;101214.38;;;10.51;100.00
54042;BME280;41156;51.508;5.406;2023-03-21T09:53:39;101212.50;;;10.58;100.00
54042;BME280;41156;51.508;5.406;2023-03-21T09:56:41;101205.22;;;10.65;100.00
54042;BME280;41156;51.508;5.406;2023-03-21T09:59:43;101199.63;;;10.73;100.00
54042;BME280;41156;51.508;5.406;2023-03-21T10:02:50;101201.09;;;10.83;100.00
54042;BME280;41156;51.508;5.406;2023-03-21T10:05:54;101192.31;;;10.94;100.00
54042;BME280;41156;51.508;5.406;2023-03-21T10:09:06;101193.78;;;11.03;100.00
54042;BME280;41156;51.508;5.406;2023-03-21T10:12:28;101195.66;;;11.09;100.00
54042;BME280;41156;51.508;5.406;2023-03-21T10:15:30;101185.25;;;11.13;100.00
54042;BME280;41156;51.508;5.406;2023-03-21T10:18:30;101178.16;;;11.19;100.00
54042;BME280;41156;51.508;5.406;2023-03-21T10:21:32;101182.31;;;11.28;100.00
54042;BME280;41156;51.508;5.406;2023-03-21T10:24:33;101190.22;;;11.36;100.00
54042;BME280;41156;51.508;5.406;2023-03-21T10:27:34;101188.50;;;11.48;100.00
54042;BME280;41156;51.508;5.406;2023-03-21T10:30:42;101183.25;;;11.60;100.00
54042;BME280;41156;51.508;5.406;2023-03-21T10:33:46;101182.00;;;11.70;100.00
54042;BME280;41156;51.508;5.406;2023-03-21T10:36:48;101179.66;;;11.80;100.00
54042;BME280;41156;51.508;5.406;2023-03-21T10:39:50;101176.88;;;12.00;100.00
54042;BME280;41156;51.508;5.406;2023-03-21T10:42:54;101176.72;;;11.95;100.00
54042;BME280;41156;51.508;5.406;2023-03-21T10:45:55;101180.84;;;12.04;100.00
54042;BME280;41156;51.508;5.406;2023-03-21T10:48:56;101183.47;;;12.17;100.00
54042;BME280;41156;51.508;5.406;2023-03-21T10:51:58;101192.38;;;12.25;100.00
54042;BME280;41156;51.508;5.406;2023-03-21T10:55:16;101202.38;;;12.31;100.00
54042;BME280;41156;51.508;5.406;2023-03-21T10:58:21;101176.25;;;12.36;100.00
54042;BME280;41156;51.508;5.406;2023-03-21T11:01:30;101181.00;;;12.48;100.00
54042;BME280;41156;51.508;5.406;2023-03-21T11:04:35;101167.13;;;12.63;100.00
54042;BME280;41156;51.508;5.406;2023-03-21T11:07:36;101167.63;;;12.78;100.00
54042;BME280;41156;51.508;5.406;2023-03-21T11:10:53;101165.44;;;12.87;100.00
54042;BME280;41156;51.508;5.406;2023-03-21T11:14:00;101165.66;;;12.85;100.00
54042;BME280;41156;51.508;5.406;2023-03-21T11:17:00;101162.28;;;12.90;100.00
54042;BME280;41156;51.508;5.406;2023-03-21T11:20:06;101169.78;;;12.94;100.00
54042;BME280;41156;51.508;5.406;2023-03-21T11:23:11;101170.97;;;12.99;100.00
54042;BME280;41156;51.508;5.406;2023-03-21T11:26:28;101177.41;;;13.04;100.00
54042;BME280;41156;51.508;5.406;2023-03-21T11:29:33;101164.00;;;13.09;100.00
54042;BME280;41156;51.508;5.406;2023-03-21T11:32:36;101158.34;;;13.11;100.00
54042;BME280;41156;51.508;5.406;2023-03-21T11:35:37;101156.75;;;13.22;100.00
54042;BME280;41156;51.508;5.406;2023-03-21T11:38:38;101153.53;;;13.31;100.00
54042;BME280;41156;51.508;5.406;2023-03-21T11:41:40;101157.19;;;13.44;100.00
54042;BME280;41156;51.508;5.406;2023-03-21T11:44:42;101163.16;;;13.53;100.00
54042;BME280;41156;51.508;5.406;2023-03-21T11:47:44;101168.66;;;13.64;100.00
54042;BME280;41156;51.508;5.406;2023-03-21T11:50:47;101156.72;;;13.65;100.00
54042;BME280;41156;51.508;5.406;2023-03-21T12:03:56;101146.63;;;14.03;100.00
54042;BME280;41156;51.508;5.406;2023-03-21T12:10:31;101144.72;;;14.03;100.00
54042;BME280;41156;51.508;5.406;2023-03-21T12:27:10;101096.22;;;14.61;100.00
54042;BME280;41156;51.508;5.406;2023-03-21T12:30:36;101105.66;;;14.70;100.00
54042;BME280;41156;51.508;5.406;2023-03-21T12:33:47;101104.59;;;14.71;100.00
54042;BME280;41156;51.508;5.406;2023-03-21T12:47:22;101101.94;;;14.29;100.00
54042;BME280;41156;51.508;5.406;2023-03-21T12:50:26;101092.81;;;14.23;100.00
54042;BME280;41156;51.508;5.406;2023-03-21T12:56:48;101079.84;;;14.37;100.00
54042;BME280;41156;51.508;5.406;2023-03-21T13:00:14;101073.84;;;14.47;100.00
54042;BME280;41156;51.508;5.406;2023-03-21T13:03:19;101077.50;;;14.53;100.00
54042;BME280;41156;51.508;5.406;2023-03-21T13:06:23;101077.75;;;14.63;100.00
54042;BME280;41156;51.508;5.406;2023-03-21T13:09:37;101069.81;;;14.73;100.00
54042;BME280;41156;51.508;5.406;2023-03-21T13:12:50;101075.00;;;14.98;100.00
54042;BME280;41156;51.508;5.406;2023-03-21T13:19:12;101072.09;;;15.41;100.00
54042;BME280;41156;51.508;5.406;2023-03-21T13:22:25;101070.16;;;15.53;100.00
54042;BME280;41156;51.508;5.406;2023-03-21T13:25:29;101067.53;;;15.58;100.00
54042;BME280;41156;51.508;5.406;2023-03-21T13:28:35;101069.53;;;15.63;100.00
54042;BME280;41156;51.508;5.406;2023-03-21T13:31:43;101065.38;;;15.60;100.00
54042;BME280;41156;51.508;5.406;2023-03-21T13:34:43;101057.56;;;15.64;100.00
54042;BME280;41156;51.508;5.406;2023-03-21T13:38:05;101066.06;;;15.67;100.00
54042;BME280;41156;51.508;5.406;2023-03-21T13:41:12;101055.19;;;15.67;100.00
54042;BME280;41156;51.508;5.406;2023-03-21T13:44:22;101049.59;;;15.74;100.00
54042;BME280;41156;51.508;5.406;2023-03-21T13:47:50;101043.09;;;15.63;100.00
54042;BME280;41156;51.508;5.406;2023-03-21T13:50:59;101032.22;;;15.63;100.00
54042;BME280;41156;51.508;5.406;2023-03-21T13:54:00;101031.81;;;15.71;100.00
54042;BME280;41156;51.508;5.406;2023-03-21T13:57:04;101024.13;;;15.68;100.00
54042;BME280;41156;51.508;5.406;2023-03-21T14:00:26;101029.47;;;15.63;100.00
54042;BME280;41156;51.508;5.406;2023-03-21T14:03:29;101021.06;;;15.65;100.00
54042;BME280;41156;51.508;5.406;2023-03-21T14:06:56;101024.88;;;15.64;93.53
54042;BME280;41156;51.508;5.406;2023-03-21T14:10:08;101023.31;;;15.68;93.77
54042;BME280;41156;51.508;5.406;2023-03-21T14:13:19;101011.59;;;15.67;100.00
54042;BME280;41156;51.508;5.406;2023-03-21T14:16:23;101011.56;;;15.79;100.00
54042;BME280;41156;51.508;5.406;2023-03-21T14:19:30;101007.94;;;15.90;100.00
54042;BME280;41156;51.508;5.406;2023-03-21T14:22:31;101014.88;;;15.98;100.00
54042;BME280;41156;51.508;5.406;2023-03-21T14:25:36;101015.03;;;15.91;100.00
54042;BME280;41156;51.508;5.406;2023-03-21T14:28:44;101018.75;;;15.85;100.00
54042;BME280;41156;51.508;5.406;2023-03-21T14:31:46;101012.63;;;15.78;100.00
54042;BME280;41156;51.508;5.406;2023-03-21T14:34:47;101011.59;;;15.67;100.00
54042;BME280;41156;51.508;5.406;2023-03-21T14:37:48;101005.13;;;15.57;100.00
54042;BME280;41156;51.508;5.406;2023-03-21T14:40:52;101007.19;;;15.49;100.00
54042;BME280;41156;51.508;5.406;2023-03-21T14:44:07;101001.72;;;15.49;100.00
54042;BME280;41156;51.508;5.406;2023-03-21T14:47:19;101001.66;;;15.61;100.00
54042;BME280;41156;51.508;5.406;2023-03-21T14:50:25;101002.50;;;15.62;100.00
54042;BME280;41156;51.508;5.406;2023-03-21T14:53:32;101011.06;;;15.53;100.00
54042;BME280;41156;51.508;5.406;2023-03-21T14:56:36;101017.50;;;15.47;100.00
54042;BME280;41156;51.508;5.406;2023-03-21T14:59:39;101009.25;;;15.30;100.00
54042;BME280;41156;51.508;5.406;2023-03-21T15:02:41;101011.44;;;15.16;100.00
54042;BME280;41156;51.508;5.406;2023-03-21T15:05:45;101015.50;;;15.02;100.00
54042;BME280;41156;51.508;5.406;2023-03-21T15:09:00;101016.84;;;14.88;100.00
54042;BME280;41156;51.508;5.406;2023-03-21T15:12:06;101018.63;;;14.70;100.00
54042;BME280;41156;51.508;5.406;2023-03-21T15:15:12;101014.25;;;14.57;100.00
54042;BME280;41156;51.508;5.406;2023-03-21T15:18:18;101011.19;;;14.54;100.00
54042;BME280;41156;51.508;5.406;2023-03-21T15:21:25;101011.03;;;14.49;100.00
54042;BME280;41156;51.508;5.406;2023-03-21T15:24:30;101002.41;;;14.52;100.00
54042;BME280;41156;51.508;5.406;2023-03-21T15:27:37;100992.63;;;14.63;100.00
54042;BME280;41156;51.508;5.406;2023-03-21T15:30:46;100993.78;;;14.78;100.00
54042;BME280;41156;51.508;5.406;2023-03-21T15:33:48;100989.13;;;15.03;100.00
54042;BME280;41156;51.508;5.406;2023-03-21T15:37:02;100990.75;;;15.15;100.00
54042;BME280;41156;51.508;5.406;2023-03-21T15:40:18;100982.06;;;15.18;100.00
54042;BME280;41156;51.508;5.406;2023-03-21T15:43:19;100987.50;;;15.18;100.00
54042;BME280;41156;51.508;5.406;2023-03-21T15:46:45;100989.03;;;15.26;100.00
54042;BME280;41156;51.508;5.406;2023-03-21T15:49:52;100991.53;;;15.28;100.00
54042;BME280;41156;51.508;5.406;2023-03-21T15:52:54;100988.22;;;15.26;100.00
54042;BME280;41156;51.508;5.406;2023-03-21T15:55:58;100993.81;;;15.19;100.00
54042;BME280;41156;51.508;5.406;2023-03-21T15:59:02;100996.56;;;15.07;100.00
54042;BME280;41156;51.508;5.406;2023-03-21T16:02:14;101002.84;;;14.96;100.00
54042;BME280;41156;51.508;5.406;2023-03-21T16:08:25;101003.84;;;14.78;100.00
54042;BME280;41156;51.508;5.406;2023-03-21T16:11:28;100995.69;;;14.66;100.00
54042;BME280;41156;51.508;5.406;2023-03-21T16:14:36;100997.50;;;14.60;100.00
54042;BME280;41156;51.508;5.406;2023-03-21T16:17:36;101010.91;;;14.55;100.00
54042;BME280;41156;51.508;5.406;2023-03-21T16:20:41;101010.69;;;14.45;100.00
54042;BME280;41156;51.508;5.406;2023-03-21T16:23:41;101012.34;;;14.34;100.00
54042;BME280;41156;51.508;5.406;2023-03-21T16:26:44;101012.13;;;14.24;100.00
54042;BME280;41156;51.508;5.406;2023-03-21T16:29:46;101016.69;;;14.12;100.00
54042;BME280;41156;51.508;5.406;2023-03-21T16:32:47;101028.97;;;14.02;100.00
54042;BME280;41156;51.508;5.406;2023-03-21T16:35:49;101031.19;;;13.94;100.00
54042;BME280;41156;51.508;5.406;2023-03-21T16:38:52;101032.50;;;13.91;100.00
54042;BME280;41156;51.508;5.406;2023-03-21T16:41:52;101034.84;;;13.87;100.00
54042;BME280;41156;51.508;5.406;2023-03-21T16:44:53;101032.00;;;13.82;100.00
54042;BME280;41156;51.508;5.406;2023-03-21T16:47:53;101029.38;;;13.76;100.00
54042;BME280;41156;51.508;5.406;2023-03-21T16:50:53;101037.41;;;13.71;100.00
54042;BME280;41156;51.508;5.406;2023-03-21T16:53:54;101041.03;;;13.64;100.00
54042;BME280;41156;51.508;5.406;2023-03-21T16:56:55;101051.38;;;13.56;100.00